Time;durP1;ratioP1;P1;durP2;ratioP2;P2;SDS_P1;SDS_P2;PMS_P1;PMS_P2;Temp;Humidity;BMP_temperature;BMP_pressure;BME280_temperature;BME280_humidity;BME280_pressure;Samples;Min_cycle;Max_cycle;Signal;HPM_P1;HPM_P2
2023/08/09 00:00:28;;;;;;;;;;;23.00;56.80;;;;;;8372353;28;20469;-77
2023/08/09 00:04:29;;;;;;;;;;;22.90;56.90;;;;;;8346269;28;20063;-77
2023/08/09 00:08:30;;;;;;;;;;;22.90;56.90;;;;;;8348105;28;19917;-77
2023/08/09 00:12:31;;;;;;;;;;;22.90;56.90;;;;;;8394955;28;20464;-79
2023/08/09 00:16:32;;;;;;;;;;;22.90;56.80;;;;;;8394694;28;19920;-78
2023/08/09 00:20:32;;;;;;;;;;;22.90;56.80;;;;;;8395111;28;19909;-78
2023/08/09 00:24:33;;;;;;;;;;;22.90;56.70;;;;;;8394331;28;19914;-78
2023/08/09 00:28:33;;;;;;;;;;;22.90;56.50;;;;;;8394911;28;20026;-78
2023/08/09 00:32:34;;;;;;;;;;;22.90;56.40;;;;;;8394726;28;19917;-78
2023/08/09 00:36:34;;;;;;;;;;;22.90;56.40;;;;;;8376563;28;19935;-78
2023/08/09 00:40:36;;;;;;;;;;;22.90;56.30;;;;;;8376438;28;19912;-78
2023/08/09 00:44:36;;;;;;;;;;;22.90;56.30;;;;;;8394389;28;19909;-78
2023/08/09 00:48:37;;;;;;;;;;;22.90;56.20;;;;;;8394733;28;19919;-78
2023/08/09 00:52:38;;;;;;;;;;;22.80;56.30;;;;;;8394196;28;19916;-78
2023/08/09 00:56:39;;;;;;;;;;;22.80;56.30;;;;;;8393820;28;20061;-78
2023/08/09 01:00:39;;;;;;;;;;;22.80;56.30;;;;;;8359531;28;19921;-78
2023/08/09 01:04:40;;;;;;;;;;;22.80;56.20;;;;;;8359712;28;19934;-78
2023/08/09 01:08:47;;;;;;;;;;;22.80;56.20;;;;;;8376486;28;19931;-78
2023/08/09 01:12:52;;;;;;;;;;;22.80;56.20;;;;;;8360190;28;19921;-77
2023/08/09 01:16:53;;;;;;;;;;;22.80;56.20;;;;;;8360927;28;19956;-77
2023/08/09 01:20:53;;;;;;;;;;;22.80;56.20;;;;;;8360512;28;19909;-77
2023/08/09 01:24:57;;;;;;;;;;;22.80;56.20;;;;;;8361022;28;19908;-77
2023/08/09 01:28:58;;;;;;;;;;;22.80;56.30;;;;;;8370499;28;19909;-77
2023/08/09 01:32:59;;;;;;;;;;;22.80;56.10;;;;;;8373218;28;20016;-78
2023/08/09 01:37:04;;;;;;;;;;;22.80;56.20;;;;;;8372923;28;19909;-77
2023/08/09 01:41:05;;;;;;;;;;;22.70;56.10;;;;;;8384508;28;19915;-78
2023/08/09 01:45:08;;;;;;;;;;;22.70;56.20;;;;;;8395948;28;19909;-77
2023/08/09 01:49:13;;;;;;;;;;;22.70;56.20;;;;;;8379688;28;19913;-78
2023/08/09 01:53:13;;;;;;;;;;;22.70;56.30;;;;;;8402467;28;19921;-78
2023/08/09 01:57:14;;;;;;;;;;;22.70;56.40;;;;;;8407119;28;19897;-78
2023/08/09 02:01:14;;;;;;;;;;;22.70;56.30;;;;;;8406860;28;19919;-78
2023/08/09 02:05:15;;;;;;;;;;;22.70;56.30;;;;;;8403276;28;19913;-78
2023/08/09 02:09:16;;;;;;;;;;;22.70;56.30;;;;;;8369348;28;19969;-78
2023/08/09 02:13:16;;;;;;;;;;;22.70;56.20;;;;;;8382196;28;20385;-77
2023/08/09 02:17:17;;;;;;;;;;;22.70;55.90;;;;;;8382033;28;20358;-78
2023/08/09 02:21:17;;;;;;;;;;;22.70;56.20;;;;;;8399377;28;19912;-77
2023/08/09 02:25:18;;;;;;;;;;;22.70;56.10;;;;;;8380868;28;20417;-77
2023/08/09 02:29:18;;;;;;;;;;;22.70;56.20;;;;;;8399198;28;20372;-77
2023/08/09 02:33:19;;;;;;;;;;;22.70;56.10;;;;;;8398588;28;19926;-78
2023/08/09 02:37:20;;;;;;;;;;;22.70;56.20;;;;;;8380688;28;20378;-78
2023/08/09 02:41:20;;;;;;;;;;;22.70;56.10;;;;;;8398214;28;19916;-78
2023/08/09 02:45:21;;;;;;;;;;;22.70;56.20;;;;;;8399285;28;19916;-78
2023/08/09 02:49:21;;;;;;;;;;;22.70;55.90;;;;;;8364341;28;20007;-78
2023/08/09 02:53:26;;;;;;;;;;;22.70;56.40;;;;;;8398534;28;19924;-78
2023/08/09 02:57:26;;;;;;;;;;;22.70;56.50;;;;;;8398183;28;19912;-77
2023/08/09 03:01:29;;;;;;;;;;;22.60;56.30;;;;;;8363287;28;19912;-78
2023/08/09 03:05:30;;;;;;;;;;;22.60;56.30;;;;;;8397487;28;19928;-78
2023/08/09 03:09:30;;;;;;;;;;;22.70;56.30;;;;;;8397241;28;19923;-77
2023/08/09 03:13:31;;;;;;;;;;;22.70;56.00;;;;;;8379092;28;19920;-78
2023/08/09 03:17:32;;;;;;;;;;;22.60;56.00;;;;;;8396847;28;19923;-78
2023/08/09 03:21:32;;;;;;;;;;;22.60;56.10;;;;;;8378903;28;20350;-78
2023/08/09 03:25:34;;;;;;;;;;;22.70;56.10;;;;;;8396543;28;19913;-77
2023/08/09 03:29:34;;;;;;;;;;;22.70;56.20;;;;;;8396436;28;19959;-78
2023/08/09 03:33:36;;;;;;;;;;;22.60;55.80;;;;;;8378300;28;19916;-78
2023/08/09 03:37:37;;;;;;;;;;;22.60;56.00;;;;;;8378362;28;20003;-77
2023/08/09 03:41:37;;;;;;;;;;;22.60;56.20;;;;;;8378130;28;19919;-78
2023/08/09 03:45:38;;;;;;;;;;;22.70;56.20;;;;;;8378000;28;19913;-78
2023/08/09 03:49:38;;;;;;;;;;;22.70;56.40;;;;;;8360957;28;19912;-78
2023/08/09 03:53:39;;;;;;;;;;;22.60;56.50;;;;;;8395896;28;19924;-77
2023/08/09 03:57:40;;;;;;;;;;;22.60;56.50;;;;;;8377780;28;19912;-78
2023/08/09 04:01:41;;;;;;;;;;;22.60;56.30;;;;;;8377535;28;19920;-77
2023/08/09 04:05:41;;;;;;;;;;;22.70;56.40;;;;;;8395381;28;19952;-78
2023/08/09 04:09:42;;;;;;;;;;;22.60;56.30;;;;;;8394731;28;19924;-78
2023/08/09 04:13:42;;;;;;;;;;;22.70;56.30;;;;;;8359272;28;19912;-78
2023/08/09 04:17:43;;;;;;;;;;;22.60;56.20;;;;;;8393601;28;19947;-78
2023/08/09 04:21:44;;;;;;;;;;;22.60;56.20;;;;;;8375846;28;19912;-78
2023/08/09 04:25:46;;;;;;;;;;;22.60;56.10;;;;;;8393439;28;19962;-78
2023/08/09 04:29:46;;;;;;;;;;;22.60;56.10;;;;;;8375466;28;20320;-78
2023/08/09 04:33:51;;;;;;;;;;;22.60;56.00;;;;;;8375301;28;19916;-78
2023/08/09 04:37:52;;;;;;;;;;;22.60;55.80;;;;;;8393153;28;19923;-78
2023/08/09 04:41:53;;;;;;;;;;;22.60;56.20;;;;;;8375220;28;19912;-78
2023/08/09 04:45:54;;;;;;;;;;;22.60;56.00;;;;;;8375352;28;20307;-77
2023/08/09 04:49:55;;;;;;;;;;;22.60;56.10;;;;;;8392979;28;20003;-78
2023/08/09 04:53:55;;;;;;;;;;;22.60;56.40;;;;;;8392684;28;19917;-78
2023/08/09 04:57:56;;;;;;;;;;;22.60;56.60;;;;;;8392929;28;19912;-77
2023/08/09 05:01:56;;;;;;;;;;;22.60;56.20;;;;;;8373850;28;19952;-78
2023/08/09 05:05:57;;;;;;;;;;;22.60;56.30;;;;;;8374657;28;19912;-78
2023/08/09 05:09:57;;;;;;;;;;;22.60;56.00;;;;;;8323387;28;1975396;-78
2023/08/09 05:13:58;;;;;;;;;;;22.60;55.90;;;;;;8394012;28;19956;-78
2023/08/09 05:17:59;;;;;;;;;;;22.60;56.40;;;;;;8394016;28;20388;-78
2023/08/09 05:21:59;;;;;;;;;;;22.60;56.10;;;;;;8394183;28;19913;-78
2023/08/09 05:26:00;;;;;;;;;;;22.60;56.10;;;;;;8359197;28;19913;-77
2023/08/09 05:30:00;;;;;;;;;;;22.60;56.30;;;;;;8394694;28;20361;-77
2023/08/09 05:34:01;;;;;;;;;;;22.60;56.10;;;;;;8393540;28;19916;-78
2023/08/09 05:38:02;;;;;;;;;;;22.60;56.10;;;;;;8393726;28;19916;-78
2023/08/09 05:42:03;;;;;;;;;;;22.60;55.80;;;;;;8359227;28;19951;-78
2023/08/09 05:46:03;;;;;;;;;;;22.60;56.10;;;;;;8375809;28;19920;-78
2023/08/09 05:50:05;;;;;;;;;;;22.60;56.40;;;;;;8393782;28;19908;-77
2023/08/09 05:54:05;;;;;;;;;;;22.60;56.50;;;;;;8393592;28;19920;-77
2023/08/09 05:58:06;;;;;;;;;;;22.60;56.60;;;;;;8375544;28;19912;-78
2023/08/09 06:02:06;;;;;;;;;;;22.60;56.50;;;;;;8358776;28;20321;-78
2023/08/09 06:06:07;;;;;;;;;;;22.60;56.40;;;;;;8393359;28;19992;-78
2023/08/09 06:10:08;;;;;;;;;;;22.60;56.40;;;;;;8374864;28;19921;-78
2023/08/09 06:14:08;;;;;;;;;;;22.60;55.80;;;;;;8394971;28;19920;-78
2023/08/09 06:18:09;;;;;;;;;;;22.60;56.30;;;;;;8399019;28;20377;-78
2023/08/09 06:22:09;;;;;;;;;;;22.60;55.80;;;;;;8364735;28;19936;-78
2023/08/09 06:26:10;;;;;;;;;;;22.60;55.80;;;;;;8380600;28;19913;-77
2023/08/09 06:30:11;;;;;;;;;;;22.60;56.20;;;;;;8398397;28;20247;-77
2023/08/09 06:34:12;;;;;;;;;;;22.60;55.90;;;;;;8380371;28;20127;-77
2023/08/09 06:38:13;;;;;;;;;;;22.60;56.10;;;;;;8380582;28;19924;-78
2023/08/09 06:42:13;;;;;;;;;;;22.60;56.00;;;;;;8380296;28;19958;-78
2023/08/09 06:46:14;;;;;;;;;;;22.60;55.80;;;;;;8363581;28;19916;-78
2023/08/09 06:50:14;;;;;;;;;;;22.60;56.00;;;;;;8363525;28;19912;-78
2023/08/09 06:54:15;;;;;;;;;;;22.60;56.40;;;;;;8398158;28;19924;-78
2023/08/09 06:58:15;;;;;;;;;;;22.60;56.50;;;;;;8397638;28;19913;-77
2023/08/09 07:02:16;;;;;;;;;;;22.60;56.30;;;;;;8379490;28;20286;-78
2023/08/09 07:06:16;;;;;;;;;;;22.60;56.00;;;;;;8379488;28;19934;-78
2023/08/09 07:10:17;;;;;;;;;;;22.60;56.20;;;;;;8397259;28;20405;-78
2023/08/09 07:14:18;;;;;;;;;;;22.60;55.90;;;;;;8397597;28;20113;-78
2023/08/09 07:18:18;;;;;;;;;;;22.60;55.80;;;;;;8379044;28;19927;-78
2023/08/09 07:22:19;;;;;;;;;;;22.60;55.90;;;;;;8396919;28;19912;-77
2023/08/09 07:26:19;;;;;;;;;;;22.60;56.30;;;;;;8395617;28;19913;-78
2023/08/09 07:30:20;;;;;;;;;;;22.60;55.60;;;;;;8345402;28;19913;-77
2023/08/09 07:34:20;;;;;;;;;;;22.60;55.60;;;;;;8378698;28;19916;-77
2023/08/09 07:38:21;;;;;;;;;;;22.60;56.10;;;;;;8378286;28;19913;-77
2023/08/09 07:42:21;;;;;;;;;;;22.60;55.60;;;;;;8378309;28;19923;-77
2023/08/09 07:46:22;;;;;;;;;;;22.60;55.90;;;;;;8396058;28;20393;-78
2023/08/09 07:50:22;;;;;;;;;;;22.60;55.30;;;;;;8395968;28;19912;-78
2023/08/09 07:54:23;;;;;;;;;;;22.60;56.30;;;;;;8395671;28;19912;-78
2023/08/09 07:58:23;;;;;;;;;;;22.60;56.10;;;;;;8395631;28;19960;-78
2023/08/09 08:02:24;;;;;;;;;;;22.60;56.50;;;;;;8396022;28;19918;-77
2023/08/09 08:06:24;;;;;;;;;;;22.50;55.70;;;;;;8395320;28;19908;-78
2023/08/09 08:10:25;;;;;;;;;;;22.60;56.00;;;;;;8395110;28;19943;-78
2023/08/09 08:14:26;;;;;;;;;;;22.60;56.20;;;;;;8377322;28;20003;-77
2023/08/09 08:18:26;;;;;;;;;;;22.60;55.70;;;;;;8377235;28;19908;-77
2023/08/09 08:22:28;;;;;;;;;;;22.60;55.70;;;;;;8395364;28;20386;-77
2023/08/09 08:26:28;;;;;;;;;;;22.60;56.30;;;;;;8394862;28;19923;-77
2023/08/09 08:30:29;;;;;;;;;;;22.60;56.10;;;;;;8394630;28;19960;-78
2023/08/09 08:34:31;;;;;;;;;;;22.60;56.30;;;;;;8376761;28;19917;-78
2023/08/09 08:38:32;;;;;;;;;;;22.60;56.00;;;;;;8376487;28;19922;-78
2023/08/09 08:42:33;;;;;;;;;;;22.60;56.00;;;;;;8394611;28;19912;-77
2023/08/09 08:46:33;;;;;;;;;;;22.60;55.80;;;;;;8394498;28;19909;-78
2023/08/09 08:50:37;;;;;;;;;;;22.60;55.80;;;;;;8394342;28;20362;-78
2023/08/09 08:54:39;;;;;;;;;;;22.60;55.80;;;;;;8376103;28;20061;-78
2023/08/09 08:58:39;;;;;;;;;;;22.60;56.30;;;;;;8394428;28;19908;-78
2023/08/09 09:02:40;;;;;;;;;;;22.60;56.20;;;;;;8359751;28;19912;-78
2023/08/09 09:06:41;;;;;;;;;;;22.60;56.30;;;;;;8344132;28;19979;-77
2023/08/09 09:10:45;;;;;;;;;;;22.60;56.20;;;;;;8362038;28;19925;-77
2023/08/09 09:14:49;;;;;;;;;;;22.60;55.90;;;;;;8360942;28;20025;-78
2023/08/09 09:18:50;;;;;;;;;;;22.60;56.00;;;;;;8344506;28;19932;-78
2023/08/09 09:22:51;;;;;;;;;;;22.50;55.90;;;;;;8364761;28;19958;-77
2023/08/09 09:26:53;;;;;;;;;;;22.50;56.10;;;;;;8382184;28;20011;-77
2023/08/09 09:30:57;;;;;;;;;;;22.50;56.40;;;;;;8385665;28;19909;-78
2023/08/09 09:34:58;;;;;;;;;;;22.50;56.10;;;;;;8411754;28;19924;-78
2023/08/09 09:38:59;;;;;;;;;;;22.50;56.30;;;;;;8408198;28;19913;-78
2023/08/09 09:43:01;;;;;;;;;;;22.50;56.40;;;;;;8408783;28;19919;-78
2023/08/09 09:47:02;;;;;;;;;;;22.40;56.30;;;;;;8413220;28;19916;-77
2023/08/09 09:51:03;;;;;;;;;;;22.40;56.30;;;;;;8440025;28;19908;-77
2023/08/09 09:55:03;;;;;;;;;;;22.50;56.00;;;;;;8406799;28;19925;-78
2023/08/09 09:59:04;;;;;;;;;;;22.50;55.90;;;;;;8437118;28;19912;-77
2023/08/09 10:03:04;;;;;;;;;;;22.50;56.30;;;;;;8382880;28;19939;-78
2023/08/09 10:07:05;;;;;;;;;;;22.50;56.50;;;;;;8400289;28;19935;-77
2023/08/09 10:11:08;;;;;;;;;;;22.50;56.50;;;;;;8399820;28;19927;-78
2023/08/09 10:15:11;;;;;;;;;;;22.50;56.30;;;;;;8381447;28;19917;-77
2023/08/09 10:19:14;;;;;;;;;;;22.50;56.20;;;;;;8398921;28;19999;-77
2023/08/09 10:23:19;;;;;;;;;;;22.50;56.20;;;;;;8380967;28;20007;-77
2023/08/09 10:27:38;;;;;;;;;;;22.50;56.10;;;;;;8398860;28;20406;-78
2023/08/09 10:31:59;;;;;;;;;;;22.50;56.20;;;;;;8398910;28;20388;-77
2023/08/09 10:35:59;;;;;;;;;;;22.50;56.20;;;;;;8398862;28;19967;-78
2023/08/09 10:40:16;;;;;;;;;;;22.50;56.00;;;;;;8381378;28;19912;-78
2023/08/09 10:44:16;;;;;;;;;;;22.50;56.00;;;;;;8398917;28;20314;-77
2023/08/09 10:48:27;;;;;;;;;;;22.50;56.00;;;;;;8380755;28;20014;-78
2023/08/09 10:52:30;;;;;;;;;;;22.50;56.10;;;;;;8398372;28;19919;-77
2023/08/09 10:56:32;;;;;;;;;;;22.50;55.90;;;;;;8398101;28;19954;-78
2023/08/09 11:00:38;;;;;;;;;;;22.40;56.10;;;;;;8397725;28;20140;-78
2023/08/09 11:04:38;;;;;;;;;;;22.40;56.50;;;;;;8397524;28;19916;-78
2023/08/09 11:08:39;;;;;;;;;;;22.50;56.50;;;;;;8379876;28;19916;-78
2023/08/09 11:12:43;;;;;;;;;;;22.40;56.30;;;;;;8397086;28;19924;-77
2023/08/09 11:16:44;;;;;;;;;;;22.50;56.70;;;;;;8397183;28;19948;-77
2023/08/09 11:20:45;;;;;;;;;;;22.50;56.80;;;;;;8397062;28;19920;-77
2023/08/09 11:24:45;;;;;;;;;;;22.40;56.20;;;;;;8379042;28;20016;-78
2023/08/09 11:28:46;;;;;;;;;;;22.40;56.20;;;;;;8362244;28;19913;-78
2023/08/09 11:32:56;;;;;;;;;;;22.40;56.10;;;;;;8396505;28;19912;-77
2023/08/09 11:36:57;;;;;;;;;;;22.50;56.10;;;;;;8396391;28;19916;-78
2023/08/09 11:40:57;;;;;;;;;;;22.50;56.10;;;;;;8378520;28;19912;-77
2023/08/09 11:44:58;;;;;;;;;;;22.50;55.90;;;;;;8378428;28;19999;-78
2023/08/09 11:49:02;;;;;;;;;;;22.50;56.50;;;;;;8396090;28;20396;-77
2023/08/09 11:53:04;;;;;;;;;;;22.50;55.90;;;;;;8396067;28;19978;-78
2023/08/09 11:57:07;;;;;;;;;;;22.50;55.80;;;;;;8395763;28;19948;-78
2023/08/09 12:01:15;;;;;;;;;;;22.50;55.90;;;;;;8377805;28;19912;-77
2023/08/09 12:05:15;;;;;;;;;;;22.50;56.10;;;;;;8395515;28;19908;-78
2023/08/09 12:09:34;;;;;;;;;;;22.50;56.10;;;;;;8396221;28;20366;-77
2023/08/09 12:13:35;;;;;;;;;;;22.50;55.90;;;;;;8376905;28;19919;-77
2023/08/09 12:17:35;;;;;;;;;;;22.40;56.00;;;;;;8395108;28;19908;-78
2023/08/09 12:21:36;;;;;;;;;;;22.40;56.30;;;;;;8394954;28;19995;-78
2023/08/09 12:25:37;;;;;;;;;;;22.50;55.90;;;;;;8394878;28;19908;-77
2023/08/09 12:29:38;;;;;;;;;;;22.50;56.10;;;;;;8360112;28;20378;-78
2023/08/09 12:33:38;;;;;;;;;;;22.50;56.10;;;;;;8360091;28;20313;-77
2023/08/09 12:37:39;;;;;;;;;;;22.40;55.90;;;;;;8376888;28;20100;-77
2023/08/09 12:41:43;;;;;;;;;;;22.50;56.40;;;;;;8376522;28;19966;-77
2023/08/09 12:45:43;;;;;;;;;;;22.50;56.30;;;;;;8359855;28;20069;-77
2023/08/09 12:49:45;;;;;;;;;;;22.50;56.40;;;;;;8376691;28;19965;-78
2023/08/09 12:53:46;;;;;;;;;;;22.40;56.20;;;;;;8376311;28;19916;-77
2023/08/09 12:57:46;;;;;;;;;;;22.50;56.20;;;;;;8394320;28;19919;-78
2023/08/09 13:01:47;;;;;;;;;;;22.50;56.10;;;;;;8376136;28;20388;-78
2023/08/09 13:05:48;;;;;;;;;;;22.50;56.30;;;;;;8393976;28;20491;-77
2023/08/09 13:09:49;;;;;;;;;;;22.40;56.20;;;;;;8376245;28;19920;-77
2023/08/09 13:13:49;;;;;;;;;;;22.50;56.20;;;;;;8393948;28;19927;-77
2023/08/09 13:17:50;;;;;;;;;;;22.40;56.00;;;;;;8375903;28;19919;-77
2023/08/09 13:21:51;;;;;;;;;;;22.50;56.00;;;;;;8376035;28;20358;-77
2023/08/09 13:25:53;;;;;;;;;;;22.50;55.90;;;;;;8381093;28;20381;-77
2023/08/09 13:29:54;;;;;;;;;;;22.50;56.20;;;;;;8400202;28;19961;-77
2023/08/09 13:33:56;;;;;;;;;;;22.50;56.00;;;;;;8382452;28;19917;-77
2023/08/09 13:37:56;;;;;;;;;;;22.50;56.10;;;;;;8400034;28;20285;-77
2023/08/09 13:41:57;;;;;;;;;;;22.50;55.80;;;;;;8399956;28;20140;-77
2023/08/09 13:45:58;;;;;;;;;;;22.50;55.80;;;;;;8382401;28;19909;-78
2023/08/09 13:49:58;;;;;;;;;;;22.50;55.80;;;;;;8381735;28;20336;-77
2023/08/09 13:53:59;;;;;;;;;;;22.50;55.80;;;;;;8399488;28;19916;-77
2023/08/09 13:57:59;;;;;;;;;;;22.50;55.80;;;;;;8381414;28;19978;-77
2023/08/09 14:02:00;;;;;;;;;;;22.50;55.80;;;;;;8386716;28;20370;-77
2023/08/09 14:06:01;;;;;;;;;;;22.50;56.10;;;;;;8367099;28;20293;-78
2023/08/09 14:10:02;;;;;;;;;;;22.50;55.80;;;;;;8365842;28;19917;-77
2023/08/09 14:14:03;;;;;;;;;;;22.50;56.20;;;;;;8364463;28;19925;-78
2023/08/09 14:18:03;;;;;;;;;;;22.40;56.60;;;;;;8364647;28;19917;-77
2023/08/09 14:22:05;;;;;;;;;;;22.40;56.70;;;;;;8364320;28;19913;-77
2023/08/09 14:26:05;;;;;;;;;;;22.50;56.60;;;;;;8378397;28;20282;-77
2023/08/09 14:30:06;;;;;;;;;;;22.50;56.70;;;;;;8380778;28;19959;-77
2023/08/09 14:34:07;;;;;;;;;;;22.40;56.70;;;;;;8397679;28;19916;-77
2023/08/09 14:38:08;;;;;;;;;;;22.50;56.60;;;;;;8398354;28;20389;-78
2023/08/09 14:42:08;;;;;;;;;;;22.40;56.70;;;;;;8380278;28;20334;-77
2023/08/09 14:46:09;;;;;;;;;;;22.40;56.70;;;;;;8398060;28;19917;-78
2023/08/09 14:50:09;;;;;;;;;;;22.50;56.70;;;;;;8380034;28;19917;-78
2023/08/09 14:54:10;;;;;;;;;;;22.50;56.70;;;;;;8379896;28;19916;-77
2023/08/09 14:58:11;;;;;;;;;;;22.40;56.30;;;;;;8346249;28;19967;-77
2023/08/09 15:02:11;;;;;;;;;;;22.50;56.50;;;;;;8382253;28;20365;-78
2023/08/09 15:06:12;;;;;;;;;;;22.60;54.40;;;;;;8379342;28;19972;-78
2023/08/09 15:10:12;;;;;;;;;;;22.60;54.70;;;;;;8397457;28;19936;-77
2023/08/09 15:14:13;;;;;;;;;;;22.60;55.20;;;;;;8379300;28;19916;-77
2023/08/09 15:18:15;;;;;;;;;;;22.60;55.80;;;;;;8378939;28;19974;-78
2023/08/09 15:22:15;;;;;;;;;;;22.50;55.80;;;;;;8396901;28;20396;-77
2023/08/09 15:26:16;;;;;;;;;;;22.50;56.10;;;;;;8379246;28;20259;-77
2023/08/09 15:30:20;;;;;;;;;;;22.50;56.10;;;;;;8361936;28;19999;-77
2023/08/09 15:34:20;;;;;;;;;;;22.50;55.80;;;;;;8397005;28;19917;-77
2023/08/09 15:38:21;;;;;;;;;;;22.50;56.00;;;;;;8378979;28;19917;-77
2023/08/09 15:42:22;;;;;;;;;;;22.50;55.60;;;;;;8396204;28;19913;-78
2023/08/09 15:46:22;;;;;;;;;;;22.50;55.30;;;;;;8377511;28;19982;-77
2023/08/09 15:50:23;;;;;;;;;;;22.50;55.50;;;;;;8378135;28;19923;-77
2023/08/09 15:54:23;;;;;;;;;;;22.50;55.70;;;;;;8361222;28;20410;-77
2023/08/09 15:58:25;;;;;;;;;;;22.50;55.20;;;;;;8377824;28;19919;-78
2023/08/09 16:02:25;;;;;;;;;;;22.50;55.70;;;;;;8361409;28;19969;-78
2023/08/09 16:06:26;;;;;;;;;;;22.50;55.60;;;;;;8377698;28;19912;-77
2023/08/09 16:10:27;;;;;;;;;;;22.50;55.70;;;;;;8395354;28;19920;-77
2023/08/09 16:14:27;;;;;;;;;;;22.50;56.20;;;;;;8377696;28;19912;-77
2023/08/09 16:18:28;;;;;;;;;;;22.40;55.70;;;;;;8377405;28;19913;-78
2023/08/09 16:22:29;;;;;;;;;;;22.50;55.80;;;;;;8395015;28;19978;-77
2023/08/09 16:26:30;;;;;;;;;;;22.40;55.70;;;;;;8394827;28;19937;-78
2023/08/09 16:30:31;;;;;;;;;;;22.40;56.20;;;;;;8405817;28;19908;-78
2023/08/09 16:34:31;;;;;;;;;;;22.50;55.90;;;;;;8394692;28;20405;-77
2023/08/09 16:38:32;;;;;;;;;;;22.50;55.80;;;;;;8394871;28;19912;-78
2023/08/09 16:42:32;;;;;;;;;;;22.40;56.30;;;;;;8395086;28;19956;-78
2023/08/09 16:46:33;;;;;;;;;;;22.50;55.80;;;;;;8376932;28;19916;-78
2023/08/09 16:50:33;;;;;;;;;;;22.50;55.50;;;;;;8377084;28;19962;-77
2023/08/09 16:54:34;;;;;;;;;;;22.40;55.60;;;;;;8394363;28;19966;-78
2023/08/09 16:58:35;;;;;;;;;;;22.50;55.60;;;;;;8360042;28;19913;-77
2023/08/09 17:02:35;;;;;;;;;;;22.50;55.80;;;;;;8377412;28;19966;-78
2023/08/09 17:06:36;;;;;;;;;;;22.50;55.90;;;;;;8395380;28;19939;-77
2023/08/09 17:10:37;;;;;;;;;;;22.50;56.00;;;;;;8377619;28;19936;-77
2023/08/09 17:14:37;;;;;;;;;;;22.50;55.70;;;;;;8377235;28;19912;-77
2023/08/09 17:18:38;;;;;;;;;;;22.40;55.70;;;;;;8382943;28;19986;-78
2023/08/09 17:22:39;;;;;;;;;;;22.40;56.30;;;;;;8386879;28;19919;-77
2023/08/09 17:26:40;;;;;;;;;;;22.40;56.30;;;;;;8393902;28;19988;-77
2023/08/09 17:30:40;;;;;;;;;;;22.50;56.50;;;;;;8404874;28;20286;-77
2023/08/09 17:34:44;;;;;;;;;;;22.50;56.40;;;;;;8421920;28;19988;-77
2023/08/09 17:38:48;;;;;;;;;;;22.50;56.50;;;;;;8426496;28;19938;-77
2023/08/09 17:42:49;;;;;;;;;;;22.50;55.80;;;;;;8424812;28;19919;-77
2023/08/09 17:46:50;;;;;;;;;;;22.40;55.80;;;;;;8416240;28;19936;-78
2023/08/09 17:50:50;;;;;;;;;;;22.40;55.70;;;;;;8418344;28;19987;-77
2023/08/09 17:54:51;;;;;;;;;;;22.50;55.80;;;;;;8435111;28;19944;-78
2023/08/09 17:58:51;;;;;;;;;;;22.50;55.80;;;;;;8383370;28;19967;-77
2023/08/09 18:02:53;;;;;;;;;;;22.50;56.10;;;;;;8343480;28;19975;-77
2023/08/09 18:06:53;;;;;;;;;;;22.40;55.70;;;;;;8361089;28;19919;-77
2023/08/09 18:10:54;;;;;;;;;;;22.50;55.60;;;;;;8362424;28;19921;-77
2023/08/09 18:14:54;;;;;;;;;;;22.40;56.20;;;;;;8366003;28;19927;-77
2023/08/09 18:18:55;;;;;;;;;;;22.50;55.80;;;;;;8366227;28;20012;-77
2023/08/09 18:22:56;;;;;;;;;;;22.50;55.80;;;;;;8365840;28;19963;-78
2023/08/09 18:26:56;;;;;;;;;;;22.50;55.60;;;;;;8385603;28;19913;-78
2023/08/09 18:30:57;;;;;;;;;;;22.50;56.50;;;;;;8398995;28;20437;-78
2023/08/09 18:34:57;;;;;;;;;;;22.50;56.30;;;;;;8380720;28;19939;-78
2023/08/09 18:38:58;;;;;;;;;;;22.50;55.90;;;;;;8381263;28;19908;-78
2023/08/09 18:42:58;;;;;;;;;;;22.40;56.20;;;;;;8398974;28;19920;-77
2023/08/09 18:46:59;;;;;;;;;;;22.50;55.80;;;;;;8381002;28;19912;-78
2023/08/09 18:50:59;;;;;;;;;;;22.50;55.70;;;;;;8364510;28;19919;-78
2023/08/09 18:55:00;;;;;;;;;;;22.50;55.40;;;;;;8363484;28;19923;-77
2023/08/09 18:59:01;;;;;;;;;;;22.50;55.60;;;;;;8397881;28;19920;-78
2023/08/09 19:03:02;;;;;;;;;;;22.50;55.50;;;;;;8363298;28;19941;-78
2023/08/09 19:07:03;;;;;;;;;;;22.40;55.50;;;;;;8364388;28;20362;-77
2023/08/09 19:11:03;;;;;;;;;;;22.40;55.50;;;;;;8362597;28;19951;-78
2023/08/09 19:15:05;;;;;;;;;;;22.40;55.60;;;;;;8364682;28;20367;-77
2023/08/09 19:19:05;;;;;;;;;;;22.50;55.80;;;;;;8363903;28;20298;-78
2023/08/09 19:23:06;;;;;;;;;;;22.40;55.50;;;;;;8344857;28;19909;-78
2023/08/09 19:27:07;;;;;;;;;;;22.50;55.40;;;;;;8385273;28;19962;-78
2023/08/09 19:31:07;;;;;;;;;;;22.50;55.60;;;;;;8378517;28;19923;-77
2023/08/09 19:35:08;;;;;;;;;;;22.40;56.10;;;;;;8378803;28;19916;-77
2023/08/09 19:39:09;;;;;;;;;;;22.50;56.50;;;;;;8378722;28;19965;-77
2023/08/09 19:43:09;;;;;;;;;;;22.40;56.40;;;;;;8361641;28;19917;-77
2023/08/09 19:47:10;;;;;;;;;;;22.40;56.20;;;;;;8396266;28;20364;-77
2023/08/09 19:51:10;;;;;;;;;;;22.50;56.30;;;;;;8395943;28;19913;-78
2023/08/09 19:55:11;;;;;;;;;;;22.50;55.40;;;;;;8395649;28;19924;-77
2023/08/09 19:59:12;;;;;;;;;;;22.50;55.80;;;;;;8395864;28;19913;-77
2023/08/09 20:03:13;;;;;;;;;;;22.40;55.60;;;;;;8377889;28;19912;-77
2023/08/09 20:07:13;;;;;;;;;;;22.40;55.80;;;;;;8360798;28;20057;-77
2023/08/09 20:11:14;;;;;;;;;;;22.50;55.80;;;;;;8377720;28;19921;-78
2023/08/09 20:15:15;;;;;;;;;;;22.50;55.60;;;;;;8395124;28;19947;-77
2023/08/09 20:19:15;;;;;;;;;;;22.40;55.50;;;;;;8377409;28;19913;-77
2023/08/09 20:23:17;;;;;;;;;;;22.50;55.60;;;;;;8377171;28;20285;-78
2023/08/09 20:27:17;;;;;;;;;;;22.50;55.60;;;;;;8376686;28;19916;-77
2023/08/09 20:31:18;;;;;;;;;;;22.50;55.40;;;;;;8377037;28;20403;-77
2023/08/09 20:35:18;;;;;;;;;;;22.50;55.50;;;;;;8394301;28;20401;-77
2023/08/09 20:39:19;;;;;;;;;;;22.50;55.60;;;;;;8376770;28;20353;-77
2023/08/09 20:43:20;;;;;;;;;;;22.40;55.70;;;;;;8376566;28;19912;-77
2023/08/09 20:47:20;;;;;;;;;;;22.40;55.60;;;;;;8394409;28;20362;-78
2023/08/09 20:51:21;;;;;;;;;;;22.40;55.50;;;;;;8376320;28;19916;-77
2023/08/09 20:55:22;;;;;;;;;;;22.40;55.50;;;;;;8376571;28;19916;-77
2023/08/09 20:59:22;;;;;;;;;;;22.50;55.90;;;;;;8376787;28;19919;-77
2023/08/09 21:03:23;;;;;;;;;;;22.50;56.00;;;;;;8359992;28;20015;-78
2023/08/09 21:07:23;;;;;;;;;;;22.50;56.40;;;;;;8359967;28;20283;-77
2023/08/09 21:11:24;;;;;;;;;;;22.50;55.80;;;;;;8360952;28;20394;-77
2023/08/09 21:15:25;;;;;;;;;;;22.50;55.70;;;;;;8361149;28;20302;-77
2023/08/09 21:19:25;;;;;;;;;;;22.50;55.70;;;;;;8359793;28;19920;-77
2023/08/09 21:23:26;;;;;;;;;;;22.40;55.70;;;;;;8359994;28;19913;-77
2023/08/09 21:27:26;;;;;;;;;;;22.40;55.90;;;;;;8386358;28;19974;-77
2023/08/09 21:31:27;;;;;;;;;;;22.40;55.50;;;;;;8394550;28;20385;-78
2023/08/09 21:35:27;;;;;;;;;;;22.50;56.40;;;;;;8394010;28;20364;-76
2023/08/09 21:39:28;;;;;;;;;;;22.50;57.00;;;;;;8376312;28;20392;-76
2023/08/09 21:43:29;;;;;;;;;;;22.50;57.40;;;;;;8393912;28;19966;-77
2023/08/09 21:47:29;;;;;;;;;;;22.50;57.60;;;;;;8400355;28;20361;-76
2023/08/09 21:51:30;;;;;;;;;;;22.50;57.80;;;;;;8382364;28;19920;-76
2023/08/09 21:55:30;;;;;;;;;;;22.50;57.90;;;;;;8399900;28;20255;-76
2023/08/09 21:59:31;;;;;;;;;;;22.60;58.00;;;;;;8382150;28;19974;-76
2023/08/09 22:03:31;;;;;;;;;;;22.60;60.60;;;;;;8348949;28;19913;-76
2023/08/09 22:07:35;;;;;;;;;;;22.70;62.90;;;;;;8349165;28;20424;-75
2023/08/09 22:11:35;;;;;;;;;;;22.70;63.90;;;;;;8364518;28;20409;-76
2023/08/09 22:15:36;;;;;;;;;;;22.70;62.50;;;;;;8365842;28;20305;-76
2023/08/09 22:19:36;;;;;;;;;;;22.70;62.10;;;;;;8347816;28;19931;-74
2023/08/09 22:23:37;;;;;;;;;;;22.70;61.50;;;;;;8365600;28;19912;-76
2023/08/09 22:27:38;;;;;;;;;;;22.70;60.80;;;;;;8374323;28;19913;-76
2023/08/09 22:31:38;;;;;;;;;;;22.70;60.30;;;;;;8380500;28;19913;-75
2023/08/09 22:35:39;;;;;;;;;;;22.70;59.60;;;;;;8380362;28;19920;-72
2023/08/09 22:39:39;;;;;;;;;;;22.70;60.20;;;;;;8380649;28;19913;-77
2023/08/09 22:43:40;;;;;;;;;;;22.70;59.70;;;;;;8380309;28;20396;-77
2023/08/09 22:47:41;;;;;;;;;;;22.70;59.50;;;;;;8410657;28;19909;-77
2023/08/09 22:51:42;;;;;;;;;;;22.70;58.90;;;;;;8381683;28;19919;-78
2023/08/09 22:55:42;;;;;;;;;;;22.70;59.10;;;;;;8421268;28;19966;-79
2023/08/09 22:59:43;;;;;;;;;;;22.70;59.00;;;;;;8381393;28;19913;-76
2023/08/09 23:03:43;;;;;;;;;;;22.70;58.70;;;;;;8399229;28;20364;-78
2023/08/09 23:07:44;;;;;;;;;;;22.70;58.30;;;;;;8381197;28;19939;-79
2023/08/09 23:11:46;;;;;;;;;;;22.80;58.60;;;;;;8396379;28;19921;-77
2023/08/09 23:15:46;;;;;;;;;;;22.80;57.30;;;;;;8364333;28;19928;-77
2023/08/09 23:19:47;;;;;;;;;;;22.80;58.00;;;;;;8348228;28;19913;-78